Time;durP1;ratioP1;P1;durP2;ratioP2;P2;SDS_P1;SDS_P2;PMS_P1;PMS_P2;Temp;Humidity;BMP_temperature;BMP_pressure;BME280_temperature;BME280_humidity;BME280_pressure;Samples;Min_cycle;Max_cycle;Signal;HPM_P1;HPM_P2
2021/07/27 00:01:49;;;;;;;13.10;5.50;;;19.00;99.90;;;;;;4935905;29;20737;-61
2021/07/27 00:04:15;;;;;;;4.37;4.00;;;19.00;99.90;;;;;;4936238;29;20175;-61
2021/07/27 00:06:41;;;;;;;6.93;5.17;;;19.10;99.90;;;;;;4936416;29;20182;-62
2021/07/27 00:09:06;;;;;;;5.10;4.50;;;19.10;99.90;;;;;;4936217;29;20675;-61
2021/07/27 00:11:33;;;;;;;5.40;4.80;;;19.00;99.90;;;;;;4936346;29;20281;-61
2021/07/27 00:13:59;;;;;;;5.47;4.97;;;19.00;99.90;;;;;;4935876;29;20193;-61
2021/07/27 00:16:24;;;;;;;6.90;4.90;;;19.00;99.90;;;;;;4936398;29;20410;-61
2021/07/27 00:18:50;;;;;;;6.07;5.50;;;19.00;99.90;;;;;;4935868;29;20237;-61
2021/07/27 00:21:15;;;;;;;5.33;4.90;;;19.10;99.90;;;;;;4935995;29;20201;-61
2021/07/27 00:23:41;;;;;;;5.27;4.77;;;19.00;99.90;;;;;;4936245;29;20193;-61
2021/07/27 00:26:14;;;;;;;6.20;4.33;;;19.00;99.90;;;;;;4936195;29;20175;-61
2021/07/27 00:28:40;;;;;;;5.47;4.97;;;19.00;99.90;;;;;;4935896;29;20190;-61
2021/07/27 00:31:07;;;;;;;4.10;3.80;;;19.00;99.90;;;;;;4937800;28;20462;-61
2021/07/27 00:33:33;;;;;;;5.03;4.53;;;18.90;99.90;;;;;;4953506;28;20452;-61
2021/07/27 00:36:01;;;;;;;6.97;5.23;;;18.90;99.90;;;;;;4951077;28;20450;-61
2021/07/27 00:38:26;;;;;;;6.17;5.50;;;18.60;99.90;;;;;;4949548;29;20221;-61
2021/07/27 00:40:52;;;;;;;7.23;4.73;;;18.70;99.90;;;;;;4954960;29;20464;-61
2021/07/27 00:43:21;;;;;;;5.50;5.03;;;18.80;99.90;;;;;;4954891;29;20241;-61
2021/07/27 00:45:47;;;;;;;5.57;4.53;;;18.80;99.90;;;;;;4955238;29;20205;-61
2021/07/27 00:48:13;;;;;;;5.43;4.73;;;18.80;99.90;;;;;;4954835;29;20425;-61
2021/07/27 00:50:39;;;;;;;5.67;4.97;;;18.80;99.90;;;;;;4957676;28;20233;-61
2021/07/27 00:53:06;;;;;;;6.60;5.53;;;18.70;99.90;;;;;;4954410;29;20229;-62
2021/07/27 00:55:33;;;;;;;6.17;5.57;;;18.70;99.90;;;;;;4955156;29;20174;-61
2021/07/27 00:57:58;;;;;;;5.40;4.90;;;18.70;99.90;;;;;;4957466;28;20483;-61
2021/07/27 01:00:25;;;;;;;5.93;5.33;;;18.70;99.90;;;;;;4972346;23;20524;-59
2021/07/27 01:02:50;;;;;;;6.03;5.53;;;18.50;99.90;;;;;;4956578;28;20185;-58
2021/07/27 01:05:17;;;;;;;5.37;4.70;;;18.50;99.90;;;;;;4958626;29;20406;-60
2021/07/27 01:07:43;;;;;;;5.37;4.87;;;18.50;99.90;;;;;;4959029;29;20178;-57
2021/07/27 01:10:14;;;;;;;5.90;5.30;;;18.50;99.90;;;;;;4958846;29;20487;-58
2021/07/27 01:12:40;;;;;;;6.13;5.53;;;18.60;99.90;;;;;;4939707;29;20390;-60
2021/07/27 01:15:08;;;;;;;8.43;6.17;;;18.60;99.90;;;;;;4938962;29;20942;-59
2021/07/27 01:17:33;;;;;;;6.97;6.37;;;18.60;99.90;;;;;;4938948;29;20452;-60
2021/07/27 01:39:04;;;;;;;8.63;6.37;;;18.40;99.90;;;;;;4938959;29;20402;-60
2021/07/27 01:44:03;;;;;;;6.53;5.20;;;18.40;99.90;;;;;;4938824;29;20789;-61
2021/07/27 01:46:34;;;;;;;7.07;6.37;;;18.40;99.90;;;;;;4939008;29;20175;-61
2021/07/27 01:49:00;;;;;;;5.60;4.83;;;18.40;99.90;;;;;;4938911;29;20438;-60
2021/07/27 01:51:26;;;;;;;6.70;6.00;;;18.40;99.90;;;;;;4938599;29;20947;-61
2021/07/27 01:53:53;;;;;;;6.83;6.07;;;18.40;99.90;;;;;;4938568;29;20449;-61
2021/07/27 01:56:21;;;;;;;8.47;7.30;;;18.30;99.90;;;;;;4938473;29;20652;-61
2021/07/27 01:58:48;;;;;;;8.07;6.50;;;18.30;99.90;;;;;;4938233;29;20407;-61
2021/07/27 02:01:13;;;;;;;7.00;6.30;;;18.20;99.90;;;;;;4938344;29;20525;-61
2021/07/27 02:03:39;;;;;;;7.63;6.57;;;18.30;99.90;;;;;;4938371;29;20558;-59
2021/07/27 02:06:05;;;;;;;5.57;5.07;;;18.30;99.90;;;;;;4938421;29;20313;-60
2021/07/27 02:08:30;;;;;;;6.70;6.00;;;18.40;99.90;;;;;;4938340;29;20174;-60
2021/07/27 02:11:01;;;;;;;9.67;5.97;;;18.60;99.90;;;;;;4938129;29;20202;-60
2021/07/27 02:13:44;;;;;;;5.50;5.00;;;18.50;99.90;;;;;;4937903;29;20636;-60
2021/07/27 02:16:09;;;;;;;5.60;5.10;;;18.60;99.90;;;;;;4938497;29;20459;-60
2021/07/27 02:18:35;;;;;;;10.40;7.67;;;18.60;99.90;;;;;;4938223;29;20418;-60
2021/07/27 02:21:00;;;;;;;7.00;6.30;;;18.60;99.90;;;;;;4938589;29;20191;-60
2021/07/27 02:23:26;;;;;;;5.60;5.10;;;18.60;99.90;;;;;;4938573;29;20538;-60
2021/07/27 02:25:52;;;;;;;7.10;6.50;;;18.60;99.90;;;;;;4937924;29;20175;-60
2021/07/27 02:28:17;;;;;;;5.40;4.90;;;18.60;99.90;;;;;;4937732;29;20175;-60
2021/07/27 02:30:48;;;;;;;9.80;5.47;;;18.60;99.90;;;;;;4937893;29;20564;-60
2021/07/27 02:33:15;;;;;;;6.17;5.27;;;18.60;99.90;;;;;;4938301;29;20624;-60
2021/07/27 02:35:41;;;;;;;7.30;6.00;;;18.50;99.90;;;;;;4936544;29;20924;-60
2021/07/27 02:38:07;;;;;;;10.03;6.70;;;18.50;99.90;;;;;;4938322;29;20457;-59
2021/07/27 02:40:33;;;;;;;6.67;6.07;;;18.40;99.90;;;;;;4937968;29;20976;-60
2021/07/27 02:43:02;;;;;;;7.67;6.80;;;18.30;99.90;;;;;;4937707;29;20445;-60
2021/07/27 02:45:27;;;;;;;7.03;6.33;;;18.30;99.90;;;;;;4937713;29;20453;-59
2021/07/27 02:47:53;;;;;;;6.57;5.80;;;18.40;99.90;;;;;;4937302;29;20466;-58
2021/07/27 02:50:19;;;;;;;7.20;6.47;;;18.40;99.90;;;;;;4937520;29;20265;-60
2021/07/27 02:52:44;;;;;;;6.30;5.70;;;18.50;99.90;;;;;;4937542;29;20221;-60
2021/07/27 02:55:11;;;;;;;8.50;6.20;;;18.50;99.90;;;;;;4937798;29;20170;-59
2021/07/27 02:57:37;;;;;;;6.50;5.90;;;18.50;99.90;;;;;;4937756;29;20254;-60
2021/07/27 03:00:04;;;;;;;6.30;5.70;;;18.60;99.90;;;;;;4937169;29;20414;-60
2021/07/27 03:02:32;;;;;;;6.87;6.17;;;18.50;99.90;;;;;;4937088;29;20450;-59
2021/07/27 03:04:58;;;;;;;6.50;5.90;;;18.60;99.90;;;;;;4937599;29;20502;-60
2021/07/27 03:07:32;;;;;;;11.83;7.43;;;18.50;99.90;;;;;;4937308;29;20565;-61
2021/07/27 03:12:42;;;;;;;6.80;6.20;;;18.50;99.90;;;;;;4937767;29;20530;-61
2021/07/27 03:15:08;;;;;;;10.80;6.47;;;18.60;99.90;;;;;;4936928;29;20497;-61
2021/07/27 03:17:34;;;;;;;7.00;6.30;;;18.60;99.90;;;;;;4936715;29;20691;-58
2021/07/27 03:20:02;;;;;;;7.87;6.60;;;18.60;99.90;;;;;;4937074;29;20455;-61
2021/07/27 03:22:28;;;;;;;7.70;6.60;;;18.60;99.90;;;;;;4937049;29;20194;-61
2021/07/27 03:24:54;;;;;;;9.13;7.87;;;18.60;99.90;;;;;;4934681;29;20950;-61
2021/07/27 03:27:19;;;;;;;8.10;6.47;;;18.60;99.90;;;;;;4936939;29;20201;-61
2021/07/27 03:29:45;;;;;;;7.63;6.50;;;18.50;99.90;;;;;;4936931;29;20171;-61
2021/07/27 03:32:10;;;;;;;8.20;6.17;;;18.50;99.90;;;;;;4936893;29;20688;-60
2021/07/27 03:34:36;;;;;;;7.83;6.07;;;18.50;99.90;;;;;;4936984;29;20179;-61
2021/07/27 03:37:01;;;;;;;7.33;6.70;;;18.60;99.90;;;;;;4937010;29;20206;-59
2021/07/27 03:39:27;;;;;;;7.73;6.60;;;18.70;99.90;;;;;;4936750;29;20166;-59
2021/07/27 03:41:52;;;;;;;5.87;5.40;;;18.70;99.90;;;;;;4936621;29;20619;-61
2021/07/27 03:44:19;;;;;;;11.00;6.90;;;18.70;99.90;;;;;;4936663;29;20170;-56
2021/07/27 03:46:48;;;;;;;6.37;5.77;;;18.80;99.90;;;;;;4936830;29;20178;-61
2021/07/27 03:49:13;;;;;;;5.97;5.37;;;18.70;99.90;;;;;;4936385;29;20829;-60
2021/07/27 03:51:39;;;;;;;10.20;6.20;;;18.80;99.90;;;;;;4936475;29;20438;-60
2021/07/27 03:54:04;;;;;;;7.97;6.27;;;18.80;99.90;;;;;;4937288;29;20659;-60
2021/07/27 03:56:31;;;;;;;12.60;6.43;;;18.90;99.90;;;;;;4936383;29;20265;-58
2021/07/27 03:58:56;;;;;;;7.90;6.60;;;18.80;99.90;;;;;;4936533;29;20226;-60
2021/07/27 04:01:22;;;;;;;8.53;7.00;;;18.70;99.90;;;;;;4936412;29;20457;-59
2021/07/27 04:03:47;;;;;;;7.10;6.40;;;18.60;99.90;;;;;;4936508;29;20175;-59
2021/07/27 04:06:13;;;;;;;6.10;5.60;;;18.50;99.90;;;;;;4936179;29;20228;-61
2021/07/27 04:08:39;;;;;;;7.50;6.17;;;18.50;99.90;;;;;;4936269;29;20178;-61
2021/07/27 04:11:05;;;;;;;7.67;6.87;;;18.50;99.90;;;;;;4936550;29;20226;-61
2021/07/27 04:13:32;;;;;;;5.83;5.33;;;18.50;99.90;;;;;;4935927;29;20181;-59
2021/07/27 04:16:02;;;;;;;8.80;6.07;;;18.50;99.90;;;;;;4934965;29;20426;-61
2021/07/27 04:18:29;;;;;;;6.60;5.90;;;18.50;99.90;;;;;;4935818;29;20450;-61
2021/07/27 04:20:58;;;;;;;7.93;6.27;;;18.40;99.90;;;;;;4936003;29;20651;-61
2021/07/27 04:23:24;;;;;;;7.07;6.37;;;18.40;99.90;;;;;;4935998;29;20927;-61
2021/07/27 04:25:49;;;;;;;6.80;6.20;;;18.50;99.90;;;;;;4936021;29;20413;-61
2021/07/27 04:28:15;;;;;;;6.23;5.73;;;18.50;99.90;;;;;;4935988;29;20254;-60
2021/07/27 04:30:40;;;;;;;6.97;5.70;;;18.50;99.90;;;;;;4935674;29;20259;-59
2021/07/27 04:33:06;;;;;;;7.10;6.40;;;18.60;99.90;;;;;;4936199;29;20643;-61
2021/07/27 04:35:32;;;;;;;6.80;6.10;;;18.60;99.90;;;;;;4935866;29;20178;-60
2021/07/27 04:37:58;;;;;;;7.40;6.60;;;18.60;99.90;;;;;;4934993;29;20202;-60
2021/07/27 04:40:24;;;;;;;7.50;6.80;;;18.70;99.90;;;;;;4935793;29;20202;-61
2021/07/27 04:42:50;;;;;;;6.30;5.80;;;18.70;99.90;;;;;;4935475;29;20442;-60
2021/07/27 04:45:15;;;;;;;7.37;6.70;;;18.70;99.90;;;;;;4935362;29;20166;-59
2021/07/27 04:47:41;;;;;;;5.87;5.37;;;18.60;99.90;;;;;;4936209;29;20220;-61
2021/07/27 04:50:07;;;;;;;6.83;6.20;;;18.70;99.90;;;;;;4935995;29;20421;-61
2021/07/27 04:52:33;;;;;;;11.53;6.73;;;18.70;99.90;;;;;;4935651;29;20201;-60
2021/07/27 04:54:59;;;;;;;7.90;7.20;;;18.60;99.90;;;;;;4935970;29;20410;-60
2021/07/27 04:57:25;;;;;;;8.83;6.90;;;18.70;99.90;;;;;;4935882;29;20209;-61
2021/07/27 04:59:50;;;;;;;7.13;6.43;;;18.70;99.90;;;;;;4935687;29;20592;-61
2021/07/27 05:02:16;;;;;;;5.67;5.10;;;18.70;99.90;;;;;;4935799;29;20242;-60
2021/07/27 05:04:46;;;;;;;6.90;6.30;;;18.70;99.90;;;;;;4935451;29;20175;-60
2021/07/27 05:07:11;;;;;;;7.60;5.73;;;18.70;99.90;;;;;;4935827;29;20566;-60
2021/07/27 05:09:37;;;;;;;6.13;5.63;;;18.80;99.90;;;;;;4935553;29;20411;-60
2021/07/27 05:12:03;;;;;;;7.07;6.37;;;18.80;99.90;;;;;;4935817;29;20208;-59
2021/07/27 05:14:29;;;;;;;8.07;6.40;;;18.80;99.90;;;;;;4935246;29;20239;-60
2021/07/27 05:16:55;;;;;;;7.13;6.43;;;18.90;99.90;;;;;;4935396;29;20446;-60
2021/07/27 05:19:21;;;;;;;7.60;6.80;;;18.90;99.90;;;;;;4935482;29;20943;-60
2021/07/27 05:21:48;;;;;;;8.57;7.70;;;19.00;99.90;;;;;;4935640;29;20277;-58
2021/07/27 05:24:14;;;;;;;6.97;6.20;;;18.90;99.90;;;;;;4935692;29;20403;-60
2021/07/27 05:26:40;;;;;;;8.63;6.53;;;19.10;99.90;;;;;;4935435;29;20543;-59
2021/07/27 05:29:05;;;;;;;7.80;7.00;;;19.20;99.90;;;;;;4935206;29;20261;-59
2021/07/27 05:31:31;;;;;;;8.33;6.30;;;19.30;99.90;;;;;;4935392;29;20201;-60
2021/07/27 05:33:57;;;;;;;7.73;6.67;;;19.40;99.90;;;;;;4935427;29;20270;-61
2021/07/27 05:36:23;;;;;;;7.10;6.50;;;19.40;99.90;;;;;;4935539;29;20193;-60
2021/07/27 05:38:50;;;;;;;6.90;6.20;;;19.60;99.90;;;;;;4935266;29;20890;-61
2021/07/27 05:41:16;;;;;;;7.10;6.50;;;19.60;99.90;;;;;;4935106;29;20201;-59
2021/07/27 05:43:41;;;;;;;7.03;6.33;;;19.60;99.90;;;;;;4935426;29;20407;-59
2021/07/27 05:46:07;;;;;;;8.00;6.60;;;19.70;99.90;;;;;;4935211;29;20175;-61
2021/07/27 05:48:32;;;;;;;6.93;6.33;;;19.90;99.90;;;;;;4936147;29;20214;-59
2021/07/27 05:50:58;;;;;;;7.60;6.77;;;20.00;99.90;;;;;;4938438;29;20198;-60
2021/07/27 05:53:24;;;;;;;7.17;6.50;;;20.00;99.90;;;;;;4938783;29;20246;-56
2021/07/27 05:55:49;;;;;;;6.83;6.00;;;20.00;99.90;;;;;;4938207;29;20238;-58
2021/07/27 05:58:15;;;;;;;7.87;7.13;;;20.00;99.90;;;;;;4938913;29;20599;-56
2021/07/27 06:00:40;;;;;;;7.40;6.70;;;19.90;99.90;;;;;;4937850;29;20210;-59
2021/07/27 06:03:06;;;;;;;6.60;6.00;;;20.10;99.90;;;;;;4938332;29;20202;-55
2021/07/27 06:05:32;;;;;;;9.00;6.53;;;20.20;99.90;;;;;;4938096;29;20175;-59
2021/07/27 06:07:58;;;;;;;8.27;6.67;;;20.20;99.90;;;;;;4938123;29;20182;-60
2021/07/27 06:10:23;;;;;;;6.43;5.77;;;20.50;99.90;;;;;;4938079;29;20187;-59
2021/07/27 06:12:49;;;;;;;6.90;5.83;;;20.60;99.90;;;;;;4938024;29;20210;-60
2021/07/27 06:15:14;;;;;;;7.27;6.53;;;20.90;99.90;;;;;;4938050;29;20182;-60
2021/07/27 06:17:40;;;;;;;7.20;5.07;;;21.30;99.90;;;;;;4935559;29;20203;-60
2021/07/27 06:20:06;;;;;;;6.07;5.57;;;21.40;99.90;;;;;;4937657;29;20191;-60
2021/07/27 06:22:32;;;;;;;6.47;5.90;;;21.30;99.90;;;;;;4937931;29;20183;-61
2021/07/27 06:24:58;;;;;;;7.20;6.27;;;21.60;99.90;;;;;;4938156;29;20970;-61
2021/07/27 06:27:24;;;;;;;8.20;5.60;;;21.90;99.90;;;;;;4937773;29;20238;-61
2021/07/27 06:29:50;;;;;;;6.47;5.83;;;21.50;99.90;;;;;;4937542;29;20422;-56
2021/07/27 06:32:16;;;;;;;7.73;5.53;;;21.40;99.90;;;;;;4937953;29;20199;-59
2021/07/27 06:34:42;;;;;;;9.93;6.03;;;21.30;99.90;;;;;;4937718;29;20473;-60
2021/07/27 06:37:08;;;;;;;6.33;5.37;;;21.30;99.90;;;;;;4937670;29;20462;-61
2021/07/27 06:39:33;;;;;;;6.67;6.07;;;21.30;99.90;;;;;;4938072;29;20421;-61
2021/07/27 06:41:59;;;;;;;10.13;5.77;;;21.50;99.90;;;;;;4937913;29;20205;-61
2021/07/27 06:44:25;;;;;;;6.53;5.70;;;21.70;99.90;;;;;;4937136;29;20287;-58
2021/07/27 06:46:50;;;;;;;6.30;5.70;;;21.80;99.90;;;;;;4937743;29;20183;-61
2021/07/27 06:49:16;;;;;;;6.67;6.00;;;22.00;99.90;;;;;;4937882;29;20210;-61
2021/07/27 06:51:42;;;;;;;7.90;5.70;;;22.10;99.90;;;;;;4937970;29;20202;-59
2021/07/27 06:54:10;;;;;;;7.03;6.20;;;22.20;99.90;;;;;;4938045;29;20175;-60
2021/07/27 06:56:39;;;;;;;6.20;5.63;;;22.20;99.90;;;;;;4938031;29;20406;-58
2021/07/27 06:59:05;;;;;;;7.20;4.90;;;22.20;99.90;;;;;;4937211;29;20414;-60
2021/07/27 07:01:31;;;;;;;5.63;5.13;;;22.20;99.90;;;;;;4936285;29;20462;-59
2021/07/27 07:03:58;;;;;;;6.33;5.73;;;22.30;99.90;;;;;;4989400;23;20221;-62
2021/07/27 07:06:23;;;;;;;6.03;5.53;;;22.40;99.90;;;;;;4968064;28;20574;-62
2021/07/27 07:08:49;;;;;;;6.33;5.70;;;22.60;99.90;;;;;;4956119;28;20452;-61
2021/07/27 07:11:15;;;;;;;6.30;5.70;;;22.60;99.90;;;;;;4959450;28;20651;-62
2021/07/27 07:13:40;;;;;;;8.03;6.37;;;22.70;99.90;;;;;;4981448;28;20181;-61
2021/07/27 07:16:10;;;;;;;6.30;5.30;;;22.90;99.90;;;;;;4975281;28;20165;-61
2021/07/27 07:18:36;;;;;;;7.30;4.90;;;23.00;99.90;;;;;;4975473;28;20676;-61
2021/07/27 07:21:03;;;;;;;8.53;5.53;;;23.10;99.90;;;;;;4975585;28;20438;-60
2021/07/27 07:23:29;;;;;;;8.10;5.50;;;23.10;99.90;;;;;;4975185;28;20638;-61
2021/07/27 07:25:55;;;;;;;7.23;5.40;;;23.00;99.90;;;;;;4975894;28;20491;-62
2021/07/27 07:28:20;;;;;;;6.43;5.90;;;23.10;99.90;;;;;;4975789;28;20174;-62
2021/07/27 07:30:47;;;;;;;5.50;5.00;;;23.30;99.90;;;;;;4975479;28;20440;-61
2021/07/27 07:33:13;;;;;;;5.60;5.00;;;23.20;99.90;;;;;;4975737;28;20201;-62
2021/07/27 07:35:38;;;;;;;6.43;5.80;;;23.20;99.90;;;;;;4973782;28;20404;-62
2021/07/27 07:38:05;;;;;;;5.70;5.20;;;23.10;99.90;;;;;;4956120;29;21002;-62
2021/07/27 07:40:31;;;;;;;5.97;5.47;;;23.10;99.90;;;;;;4955781;28;20265;-62
2021/07/27 07:43:00;;;;;;;6.53;5.80;;;22.90;99.90;;;;;;4955489;28;20465;-62
2021/07/27 07:45:27;;;;;;;5.37;4.30;;;22.90;99.90;;;;;;4955603;28;20492;-62
2021/07/27 07:47:53;;;;;;;6.37;5.50;;;23.00;99.90;;;;;;4955962;28;20477;-62
2021/07/27 07:50:18;;;;;;;6.33;5.80;;;22.90;99.90;;;;;;4955370;29;20406;-62
2021/07/27 07:52:44;;;;;;;6.50;5.90;;;23.10;99.90;;;;;;4955449;28;20189;-62
2021/07/27 07:55:10;;;;;;;6.50;5.80;;;23.20;99.90;;;;;;4955478;29;20668;-62
2021/07/27 07:57:39;;;;;;;6.00;5.40;;;22.90;99.90;;;;;;4955611;28;20248;-62
2021/07/27 08:00:06;;;;;;;5.43;4.93;;;23.10;99.90;;;;;;4954985;29;20410;-62
2021/07/27 08:02:31;;;;;;;5.90;5.40;;;23.30;99.90;;;;;;4955011;28;20434;-62
2021/07/27 08:04:57;;;;;;;6.73;5.60;;;23.60;99.90;;;;;;4955207;29;20770;-62
2021/07/27 08:07:23;;;;;;;5.20;4.80;;;23.50;99.90;;;;;;4955318;29;20253;-62
2021/07/27 08:09:49;;;;;;;5.90;5.40;;;24.00;99.90;;;;;;4955436;28;20180;-62
2021/07/27 08:12:16;;;;;;;6.00;5.40;;;24.40;99.90;;;;;;4964769;28;20416;-62
2021/07/27 08:14:43;;;;;;;5.20;4.80;;;24.00;99.90;;;;;;4974263;28;20173;-62
2021/07/27 08:17:10;;;;;;;6.53;5.80;;;24.10;99.90;;;;;;4975416;28;20454;-62
2021/07/27 08:19:35;;;;;;;6.67;5.23;;;24.40;99.90;;;;;;4974623;28;20774;-62
2021/07/27 08:22:01;;;;;;;5.90;5.27;;;24.50;99.90;;;;;;4974763;28;20484;-61
2021/07/27 08:24:27;;;;;;;4.73;4.33;;;24.50;99.90;;;;;;4974892;28;20586;-61
2021/07/27 08:26:52;;;;;;;5.40;4.90;;;24.40;99.90;;;;;;4975029;28;20264;-62
2021/07/27 08:29:18;;;;;;;5.10;4.70;;;24.60;99.90;;;;;;4974787;28;20605;-60
2021/07/27 08:31:45;;;;;;;6.53;5.77;;;24.60;99.90;;;;;;4975143;28;20179;-61
2021/07/27 08:34:17;;;;;;;5.80;5.30;;;24.70;99.90;;;;;;4974154;28;20255;-61
2021/07/27 08:36:43;;;;;;;9.50;5.93;;;24.70;99.90;;;;;;4960568;28;20786;-61
2021/07/27 08:39:09;;;;;;;6.50;5.90;;;24.60;99.90;;;;;;4955283;28;20420;-61
2021/07/27 08:41:37;;;;;;;6.47;5.87;;;24.80;99.90;;;;;;4954929;28;20406;-61
2021/07/27 08:44:04;;;;;;;5.87;5.37;;;24.50;99.90;;;;;;4954859;28;20548;-61
2021/07/27 08:46:30;;;;;;;8.73;6.40;;;24.30;99.90;;;;;;4954654;28;20405;-61
2021/07/27 08:48:57;;;;;;;6.83;5.00;;;24.40;99.90;;;;;;4954690;28;20524;-61
2021/07/27 08:51:23;;;;;;;5.10;4.60;;;24.10;99.90;;;;;;4955029;28;20177;-61
2021/07/27 08:53:50;;;;;;;6.83;5.83;;;24.30;99.90;;;;;;4954986;28;20484;-61
2021/07/27 08:56:16;;;;;;;7.20;6.40;;;24.50;99.90;;;;;;4954972;28;20517;-61
2021/07/27 08:58:42;;;;;;;6.03;5.17;;;24.30;99.90;;;;;;4954825;28;20524;-60
2021/07/27 09:01:07;;;;;;;6.20;5.60;;;24.20;99.90;;;;;;4954363;28;20171;-60
2021/07/27 09:03:33;;;;;;;6.10;5.53;;;24.40;99.90;;;;;;4954536;28;20210;-62
2021/07/27 09:06:05;;;;;;;5.93;5.43;;;24.60;99.90;;;;;;4954973;28;20706;-59
2021/07/27 09:08:31;;;;;;;6.50;5.90;;;24.90;99.90;;;;;;4955230;28;20170;-59
2021/07/27 09:11:01;;;;;;;6.50;5.90;;;25.00;99.90;;;;;;4956203;28;20421;-58
2021/07/27 09:13:33;;;;;;;6.20;5.60;;;25.20;99.90;;;;;;4955272;28;20202;-60
2021/07/27 09:15:59;;;;;;;6.00;5.50;;;25.30;99.90;;;;;;4960745;28;20917;-60
2021/07/27 09:18:25;;;;;;;7.47;5.70;;;25.20;99.90;;;;;;4973785;28;20475;-60
2021/07/27 09:20:55;;;;;;;5.80;5.30;;;25.10;99.90;;;;;;4973702;28;20413;-59
2021/07/27 09:23:28;;;;;;;5.33;4.90;;;25.20;99.90;;;;;;4973556;28;20190;-53
2021/07/27 09:25:56;;;;;;;6.10;5.60;;;25.40;99.90;;;;;;4977678;28;20436;-57
2021/07/27 09:28:23;;;;;;;7.27;6.57;;;25.50;99.90;;;;;;4969405;28;20420;-59
2021/07/27 09:30:49;;;;;;;7.47;6.17;;;25.50;99.90;;;;;;4957820;28;20421;-59
2021/07/27 09:33:16;;;;;;;6.07;5.57;;;25.30;99.90;;;;;;4958146;28;20897;-59
2021/07/27 09:35:43;;;;;;;5.60;5.20;;;25.10;99.90;;;;;;4957648;28;20910;-59
2021/07/27 09:38:13;;;;;;;6.17;5.57;;;25.10;99.90;;;;;;4957787;28;20448;-57
2021/07/27 09:40:54;;;;;;;6.03;5.43;;;24.80;99.90;;;;;;4957904;28;20408;-59
2021/07/27 09:43:22;;;;;;;6.30;5.80;;;25.00;99.90;;;;;;4957860;28;21009;-59
2021/07/27 09:45:50;;;;;;;6.60;6.00;;;25.00;99.90;;;;;;4957455;28;20895;-59
2021/07/27 09:48:17;;;;;;;7.93;5.60;;;25.20;99.90;;;;;;4957725;28;20406;-59
2021/07/27 09:50:47;;;;;;;6.83;6.13;;;25.20;99.90;;;;;;4957556;28;20424;-59
2021/07/27 09:53:14;;;;;;;6.90;6.30;;;25.10;99.90;;;;;;4957910;28;20520;-59
2021/07/27 09:55:39;;;;;;;6.10;5.60;;;25.00;99.90;;;;;;4957661;28;20856;-59
2021/07/27 09:58:05;;;;;;;5.87;5.37;;;24.80;99.90;;;;;;4957472;29;20585;-59
2021/07/27 10:00:53;;;;;;;5.70;5.20;;;25.00;99.90;;;;;;4957299;28;20248;-59
2021/07/27 10:03:27;;;;;;;6.00;5.40;;;25.00;99.90;;;;;;4943821;28;20218;-59
2021/07/27 10:06:01;;;;;;;8.60;6.70;;;25.60;99.90;;;;;;4970075;28;20903;-59
2021/07/27 10:08:31;;;;;;;6.47;5.77;;;25.80;99.90;;;;;;4957790;28;20397;-59
2021/07/27 10:11:09;;;;;;;7.10;5.73;;;26.00;99.90;;;;;;4957736;28;20414;-59
2021/07/27 10:13:36;;;;;;;6.20;5.70;;;26.10;99.90;;;;;;4957335;28;20488;-59
2021/07/27 10:16:02;;;;;;;5.50;5.00;;;26.20;99.90;;;;;;4957122;28;20417;-59
2021/07/27 10:18:33;;;;;;;8.00;5.83;;;26.60;99.90;;;;;;4957113;29;20476;-59
2021/07/27 10:21:34;;;;;;;5.97;5.40;;;26.80;99.90;;;;;;4956848;28;20412;-59
2021/07/27 10:24:13;;;;;;;7.30;5.50;;;27.40;98.90;;;;;;4879538;29;20449;-59
2021/07/27 10:26:40;;;;;;;6.20;5.60;;;27.30;99.90;;;;;;4948171;28;20413;-59
2021/07/27 10:29:05;;;;;;;5.57;4.80;;;27.50;99.20;;;;;;4957313;29;20969;-59
2021/07/27 10:31:36;;;;;;;5.90;5.40;;;27.60;98.70;;;;;;4956877;29;20485;-59
2021/07/27 10:34:03;;;;;;;6.20;5.57;;;27.40;99.80;;;;;;4956192;28;20201;-59
2021/07/27 10:36:34;;;;;;;5.30;4.90;;;27.40;99.90;;;;;;4954649;28;20410;-59
2021/07/27 10:39:16;;;;;;;6.00;5.50;;;27.30;99.00;;;;;;4937869;28;20415;-59
2021/07/27 10:41:46;;;;;;;5.77;5.27;;;26.90;99.90;;;;;;4937962;29;20428;-59
2021/07/27 10:44:16;;;;;;;5.57;4.73;;;26.90;99.90;;;;;;4937695;29;20697;-59
2021/07/27 10:46:47;;;;;;;4.17;3.87;;;26.90;99.40;;;;;;4938175;29;20395;-59
2021/07/27 10:49:25;;;;;;;5.00;4.60;;;26.90;97.80;;;;;;4937789;29;20414;-55
2021/07/27 10:52:01;;;;;;;5.53;5.00;;;27.10;99.10;;;;;;4937984;29;20730;-59
2021/07/27 10:54:32;;;;;;;5.53;5.03;;;27.00;97.80;;;;;;4938077;29;20398;-59
2021/07/27 10:57:03;;;;;;;6.67;6.10;;;26.90;99.60;;;;;;4937413;29;20441;-54
2021/07/27 10:59:35;;;;;;;6.03;5.53;;;27.20;99.90;;;;;;4937913;29;20411;-60
2021/07/27 11:02:08;;;;;;;6.17;5.63;;;27.30;99.90;;;;;;4937603;29;20811;-59
2021/07/27 11:04:33;;;;;;;5.83;5.33;;;27.60;99.90;;;;;;4947916;28;20864;-59
2021/07/27 11:07:19;;;;;;;5.53;5.03;;;27.30;98.10;;;;;;4963745;28;20496;-60
2021/07/27 11:09:59;;;;;;;6.10;5.53;;;27.50;98.30;;;;;;4956477;28;20174;-60
2021/07/27 11:12:33;;;;;;;6.00;5.50;;;27.90;99.10;;;;;;4956557;28;20430;-60
2021/07/27 11:15:21;;;;;;;5.80;5.07;;;27.90;99.90;;;;;;4956139;29;20389;-60
2021/07/27 11:17:49;;;;;;;5.27;4.77;;;28.10;97.00;;;;;;4956402;28;20568;-60
2021/07/27 11:20:17;;;;;;;6.37;5.73;;;28.50;98.20;;;;;;4956177;29;20514;-60
2021/07/27 11:22:46;;;;;;;4.73;4.33;;;29.00;95.60;;;;;;4956368;28;20428;-60
2021/07/27 11:25:12;;;;;;;4.73;4.33;;;29.00;95.00;;;;;;4956403;28;20406;-60
2021/07/27 11:27:38;;;;;;;5.23;4.83;;;28.90;96.00;;;;;;4956040;28;20412;-60
2021/07/27 11:30:07;;;;;;;5.60;5.10;;;29.50;96.00;;;;;;4955935;29;20406;-59
2021/07/27 11:32:40;;;;;;;5.17;4.77;;;30.70;93.50;;;;;;4955932;28;20193;-59
2021/07/27 11:35:06;;;;;;;4.27;3.93;;;31.50;92.70;;;;;;4956133;29;20425;-60
2021/07/27 11:37:32;;;;;;;6.03;4.80;;;31.30;92.50;;;;;;4956227;28;20445;-59
2021/07/27 11:39:58;;;;;;;4.57;4.20;;;31.30;91.80;;;;;;4956030;29;20742;-60
2021/07/27 11:42:30;;;;;;;5.60;5.10;;;31.50;93.40;;;;;;4956045;28;20202;-59
2021/07/27 11:44:57;;;;;;;5.43;4.90;;;31.50;92.70;;;;;;4954557;29;20233;-60
2021/07/27 11:47:24;;;;;;;5.10;4.70;;;31.50;92.80;;;;;;4955452;28;20445;-60
2021/07/27 11:50:03;;;;;;;4.77;4.37;;;30.90;91.30;;;;;;4955703;29;20441;-60
2021/07/27 11:52:28;;;;;;;5.13;4.63;;;29.80;91.90;;;;;;4955676;28;20429;-59
2021/07/27 11:55:01;;;;;;;5.37;4.87;;;29.20;92.30;;;;;;4951874;29;20473;-59
2021/07/27 11:57:28;;;;;;;4.47;4.03;;;29.10;93.80;;;;;;4941124;28;20259;-60
2021/07/27 12:00:08;;;;;;;4.93;4.50;;;29.30;92.40;;;;;;4936120;29;20410;-60
2021/07/27 12:02:34;;;;;;;4.60;4.20;;;28.90;92.30;;;;;;4936075;29;20473;-60
2021/07/27 12:05:01;;;;;;;4.60;4.20;;;28.70;97.10;;;;;;4938871;29;20426;-60
2021/07/27 12:07:26;;;;;;;4.80;4.40;;;28.60;92.80;;;;;;4936094;29;20269;-60
2021/07/27 12:09:52;;;;;;;5.60;5.00;;;28.90;95.90;;;;;;4936399;29;20498;-59
2021/07/27 12:12:17;;;;;;;4.03;3.73;;;29.00;94.70;;;;;;4935860;29;20178;-60
2021/07/27 12:14:43;;;;;;;4.87;4.37;;;28.90;93.70;;;;;;4936110;29;20177;-60
2021/07/27 12:17:09;;;;;;;3.90;3.60;;;29.00;92.00;;;;;;4936091;29;20560;-60
2021/07/27 12:19:34;;;;;;;5.20;4.70;;;29.10;94.50;;;;;;4935937;29;20483;-60
2021/07/27 12:22:00;;;;;;;5.10;4.37;;;29.20;94.80;;;;;;4936225;29;20174;-60
2021/07/27 12:24:26;;;;;;;4.37;4.07;;;29.30;92.70;;;;;;4936212;29;20191;-60
2021/07/27 12:26:52;;;;;;;3.80;3.43;;;29.10;93.80;;;;;;4936073;29;20178;-60
2021/07/27 12:29:17;;;;;;;4.00;3.70;;;29.20;94.70;;;;;;4936021;29;20414;-59
2021/07/27 12:31:43;;;;;;;6.00;3.70;;;29.80;91.80;;;;;;4935812;29;20179;-60
2021/07/27 12:34:09;;;;;;;4.20;3.80;;;29.90;91.90;;;;;;4936104;29;20198;-60
2021/07/27 12:36:34;;;;;;;4.40;4.10;;;30.20;92.40;;;;;;4935435;29;20258;-60
2021/07/27 12:39:00;;;;;;;3.50;3.30;;;30.50;91.00;;;;;;4935906;29;20489;-60
2021/07/27 12:41:26;;;;;;;4.33;3.93;;;31.20;90.10;;;;;;4935660;29;20206;-60
2021/07/27 12:43:51;;;;;;;4.90;3.40;;;31.30;90.90;;;;;;4935745;29;20194;-60
2021/07/27 12:46:17;;;;;;;4.43;4.03;;;31.80;88.50;;;;;;4935753;29;20177;-60
2021/07/27 12:48:43;;;;;;;4.00;3.70;;;32.10;90.30;;;;;;4935915;29;20262;-60
2021/07/27 12:51:15;;;;;;;3.23;3.03;;;33.10;84.40;;;;;;4935647;29;20167;-60
2021/07/27 12:53:40;;;;;;;4.53;3.93;;;33.30;83.80;;;;;;4935663;29;20253;-60
2021/07/27 12:56:06;;;;;;;4.47;4.03;;;33.40;79.70;;;;;;4935413;29;20806;-60
2021/07/27 12:58:31;;;;;;;4.70;4.30;;;32.80;81.00;;;;;;4937220;29;20222;-60
2021/07/27 13:00:57;;;;;;;3.50;3.30;;;32.50;78.60;;;;;;4939451;29;20218;-60
2021/07/27 13:03:22;;;;;;;3.60;3.30;;;33.10;79.30;;;;;;4960180;23;20721;-58
2021/07/27 13:05:48;;;;;;;3.83;3.53;;;33.10;79.30;;;;;;4951606;29;20567;-58
2021/07/27 13:08:14;;;;;;;4.50;4.10;;;33.50;78.80;;;;;;4959017;29;20185;-55
2021/07/27 13:10:40;;;;;;;3.53;3.30;;;33.60;79.20;;;;;;4958590;29;20178;-54